sensor_id;sensor_type;location;lat;lon;timestamp;P1;durP1;ratioP1;P2;durP2;ratioP2
38379;SDS011;38377;47.418;18.882;2022-08-21T00:02:12;4.35;;;3.95;;
38379;SDS011;38377;47.418;18.882;2022-08-21T00:04:48;4.85;;;4.20;;
38379;SDS011;38377;47.418;18.882;2022-08-21T00:07:15;4.65;;;4.20;;
38379;SDS011;38377;47.418;18.882;2022-08-21T00:09:42;4.82;;;4.43;;
38379;SDS011;38377;47.418;18.882;2022-08-21T00:12:08;4.90;;;4.40;;
38379;SDS011;38377;47.418;18.882;2022-08-21T00:14:34;4.72;;;4.25;;
38379;SDS011;38377;47.418;18.882;2022-08-21T00:17:00;5.13;;;4.72;;
38379;SDS011;38377;47.418;18.882;2022-08-21T00:19:27;5.20;;;4.57;;
38379;SDS011;38377;47.418;18.882;2022-08-21T00:21:53;5.13;;;4.43;;
38379;SDS011;38377;47.418;18.882;2022-08-21T00:24:20;4.95;;;4.45;;
38379;SDS011;38377;47.418;18.882;2022-08-21T00:26:47;4.43;;;4.03;;
38379;SDS011;38377;47.418;18.882;2022-08-21T00:29:13;4.50;;;4.10;;
38379;SDS011;38377;47.418;18.882;2022-08-21T00:31:41;5.22;;;4.13;;
38379;SDS011;38377;47.418;18.882;2022-08-21T00:34:07;5.32;;;4.63;;
38379;SDS011;38377;47.418;18.882;2022-08-21T00:36:34;4.70;;;4.20;;
38379;SDS011;38377;47.418;18.882;2022-08-21T00:39:01;4.82;;;4.43;;
38379;SDS011;38377;47.418;18.882;2022-08-21T00:41:28;4.82;;;4.32;;
38379;SDS011;38377;47.418;18.882;2022-08-21T00:43:54;5.10;;;4.63;;
38379;SDS011;38377;47.418;18.882;2022-08-21T00:46:20;5.25;;;4.75;;
38379;SDS011;38377;47.418;18.882;2022-08-21T00:48:46;6.70;;;5.05;;
38379;SDS011;38377;47.418;18.882;2022-08-21T00:51:17;5.78;;;5.28;;
38379;SDS011;38377;47.418;18.882;2022-08-21T00:53:48;5.43;;;4.40;;
38379;SDS011;38377;47.418;18.882;2022-08-21T00:56:18;4.75;;;4.28;;
38379;SDS011;38377;47.418;18.882;2022-08-21T00:58:46;5.63;;;4.90;;
38379;SDS011;38377;47.418;18.882;2022-08-21T01:01:12;5.60;;;5.10;;
38379;SDS011;38377;47.418;18.882;2022-08-21T01:03:38;5.65;;;5.05;;
38379;SDS011;38377;47.418;18.882;2022-08-21T01:06:04;6.65;;;5.57;;
38379;SDS011;38377;47.418;18.882;2022-08-21T01:08:30;6.50;;;5.43;;
38379;SDS011;38377;47.418;18.882;2022-08-21T01:10:57;5.82;;;5.32;;
38379;SDS011;38377;47.418;18.882;2022-08-21T01:13:25;7.40;;;5.32;;
38379;SDS011;38377;47.418;18.882;2022-08-21T01:15:54;6.03;;;5.43;;
38379;SDS011;38377;47.418;18.882;2022-08-21T01:18:24;7.03;;;6.30;;
38379;SDS011;38377;47.418;18.882;2022-08-21T01:21:07;7.25;;;6.35;;
38379;SDS011;38377;47.418;18.882;2022-08-21T01:23:36;7.07;;;5.82;;
38379;SDS011;38377;47.418;18.882;2022-08-21T01:26:04;6.00;;;5.40;;
38379;SDS011;38377;47.418;18.882;2022-08-21T01:28:32;9.35;;;6.68;;
38379;SDS011;38377;47.418;18.882;2022-08-21T01:31:04;6.50;;;5.80;;
38379;SDS011;38377;47.418;18.882;2022-08-21T01:33:32;7.00;;;5.88;;
38379;SDS011;38377;47.418;18.882;2022-08-21T01:35:59;8.15;;;6.25;;
38379;SDS011;38377;47.418;18.882;2022-08-21T01:38:24;8.05;;;6.78;;
38379;SDS011;38377;47.418;18.882;2022-08-21T01:40:50;8.10;;;6.82;;
38379;SDS011;38377;47.418;18.882;2022-08-21T01:43:16;10.02;;;6.28;;
38379;SDS011;38377;47.418;18.882;2022-08-21T01:45:42;7.35;;;6.60;;
38379;SDS011;38377;47.418;18.882;2022-08-21T01:48:07;6.88;;;5.82;;
38379;SDS011;38377;47.418;18.882;2022-08-21T01:50:33;6.82;;;6.13;;
38379;SDS011;38377;47.418;18.882;2022-08-21T01:53:00;8.77;;;7.07;;
38379;SDS011;38377;47.418;18.882;2022-08-21T01:55:26;6.95;;;6.18;;
38379;SDS011;38377;47.418;18.882;2022-08-21T01:57:52;9.13;;;5.88;;
38379;SDS011;38377;47.418;18.882;2022-08-21T02:00:20;8.13;;;6.35;;
38379;SDS011;38377;47.418;18.882;2022-08-21T02:02:48;6.72;;;5.90;;
38379;SDS011;38377;47.418;18.882;2022-08-21T02:05:15;6.68;;;5.75;;
38379;SDS011;38377;47.418;18.882;2022-08-21T02:07:45;6.70;;;5.70;;
38379;SDS011;38377;47.418;18.882;2022-08-21T02:10:14;6.90;;;5.93;;
38379;SDS011;38377;47.418;18.882;2022-08-21T02:12:41;9.05;;;6.28;;
38379;SDS011;38377;47.418;18.882;2022-08-21T02:15:07;9.93;;;6.93;;
38379;SDS011;38377;47.418;18.882;2022-08-21T02:17:38;8.23;;;6.60;;
38379;SDS011;38377;47.418;18.882;2022-08-21T02:20:10;8.90;;;6.68;;
38379;SDS011;38377;47.418;18.882;2022-08-21T02:25:06;11.30;;;8.05;;
38379;SDS011;38377;47.418;18.882;2022-08-21T02:27:37;9.55;;;7.38;;
38379;SDS011;38377;47.418;18.882;2022-08-21T02:30:07;8.35;;;7.50;;
38379;SDS011;38377;47.418;18.882;2022-08-21T02:32:36;9.75;;;7.80;;
38379;SDS011;38377;47.418;18.882;2022-08-21T02:35:02;9.07;;;7.82;;
38379;SDS011;38377;47.418;18.882;2022-08-21T02:37:29;11.60;;;8.18;;
38379;SDS011;38377;47.418;18.882;2022-08-21T02:39:54;11.57;;;7.78;;
38379;SDS011;38377;47.418;18.882;2022-08-21T02:42:20;11.13;;;8.38;;
38379;SDS011;38377;47.418;18.882;2022-08-21T02:44:46;8.88;;;7.53;;
38379;SDS011;38377;47.418;18.882;2022-08-21T02:47:11;9.98;;;7.55;;
38379;SDS011;38377;47.418;18.882;2022-08-21T02:49:39;11.30;;;8.27;;
38379;SDS011;38377;47.418;18.882;2022-08-21T02:52:04;10.10;;;8.68;;
38379;SDS011;38377;47.418;18.882;2022-08-21T02:54:31;11.68;;;8.60;;
38379;SDS011;38377;47.418;18.882;2022-08-21T02:56:57;12.05;;;8.25;;
38379;SDS011;38377;47.418;18.882;2022-08-21T02:59:22;9.40;;;8.18;;
38379;SDS011;38377;47.418;18.882;2022-08-21T03:01:48;9.95;;;8.35;;
38379;SDS011;38377;47.418;18.882;2022-08-21T03:04:14;10.55;;;7.68;;
38379;SDS011;38377;47.418;18.882;2022-08-21T03:06:40;10.07;;;7.80;;
38379;SDS011;38377;47.418;18.882;2022-08-21T03:09:06;10.88;;;8.57;;
38379;SDS011;38377;47.418;18.882;2022-08-21T03:11:32;10.05;;;7.97;;
38379;SDS011;38377;47.418;18.882;2022-08-21T03:13:58;10.40;;;7.95;;
38379;SDS011;38377;47.418;18.882;2022-08-21T03:16:24;10.23;;;7.88;;
38379;SDS011;38377;47.418;18.882;2022-08-21T03:18:50;9.43;;;7.85;;
38379;SDS011;38377;47.418;18.882;2022-08-21T03:21:15;9.13;;;7.95;;
38379;SDS011;38377;47.418;18.882;2022-08-21T03:23:43;9.75;;;8.15;;
38379;SDS011;38377;47.418;18.882;2022-08-21T03:26:09;9.82;;;7.75;;
38379;SDS011;38377;47.418;18.882;2022-08-21T03:28:36;10.48;;;8.52;;
38379;SDS011;38377;47.418;18.882;2022-08-21T03:31:02;12.95;;;8.68;;
38379;SDS011;38377;47.418;18.882;2022-08-21T03:33:28;10.80;;;7.90;;
38379;SDS011;38377;47.418;18.882;2022-08-21T03:36:02;11.50;;;8.93;;
38379;SDS011;38377;47.418;18.882;2022-08-21T03:38:31;10.88;;;8.68;;
38379;SDS011;38377;47.418;18.882;2022-08-21T03:40:58;11.77;;;9.43;;
38379;SDS011;38377;47.418;18.882;2022-08-21T03:43:25;12.55;;;10.43;;
38379;SDS011;38377;47.418;18.882;2022-08-21T03:45:51;11.95;;;9.85;;
38379;SDS011;38377;47.418;18.882;2022-08-21T03:48:17;12.55;;;9.48;;
38379;SDS011;38377;47.418;18.882;2022-08-21T03:50:43;13.30;;;10.00;;
38379;SDS011;38377;47.418;18.882;2022-08-21T03:53:12;11.15;;;9.50;;
38379;SDS011;38377;47.418;18.882;2022-08-21T03:55:38;12.50;;;10.20;;
38379;SDS011;38377;47.418;18.882;2022-08-21T03:58:04;11.80;;;9.77;;
38379;SDS011;38377;47.418;18.882;2022-08-21T04:00:30;14.63;;;10.35;;
38379;SDS011;38377;47.418;18.882;2022-08-21T04:02:56;13.60;;;10.15;;
38379;SDS011;38377;47.418;18.882;2022-08-21T04:05:22;12.68;;;10.43;;
38379;SDS011;38377;47.418;18.882;2022-08-21T04:07:56;11.98;;;9.60;;
38379;SDS011;38377;47.418;18.882;2022-08-21T04:10:23;12.93;;;10.73;;
38379;SDS011;38377;47.418;18.882;2022-08-21T04:12:50;12.77;;;10.15;;
38379;SDS011;38377;47.418;18.882;2022-08-21T04:15:17;12.20;;;10.35;;
38379;SDS011;38377;47.418;18.882;2022-08-21T04:17:43;12.68;;;10.10;;
38379;SDS011;38377;47.418;18.882;2022-08-21T04:20:08;13.95;;;9.77;;
38379;SDS011;38377;47.418;18.882;2022-08-21T04:22:34;14.55;;;9.70;;
38379;SDS011;38377;47.418;18.882;2022-08-21T04:25:00;11.75;;;9.68;;
38379;SDS011;38377;47.418;18.882;2022-08-21T04:27:26;13.95;;;10.50;;
38379;SDS011;38377;47.418;18.882;2022-08-21T04:29:51;12.98;;;10.90;;
38379;SDS011;38377;47.418;18.882;2022-08-21T04:32:24;17.77;;;10.43;;
38379;SDS011;38377;47.418;18.882;2022-08-21T04:34:50;12.93;;;10.02;;
38379;SDS011;38377;47.418;18.882;2022-08-21T04:37:22;12.10;;;9.95;;
38379;SDS011;38377;47.418;18.882;2022-08-21T04:39:47;11.80;;;9.45;;
38379;SDS011;38377;47.418;18.882;2022-08-21T04:42:13;11.52;;;9.57;;
38379;SDS011;38377;47.418;18.882;2022-08-21T04:44:39;11.45;;;9.52;;
38379;SDS011;38377;47.418;18.882;2022-08-21T04:47:06;14.02;;;9.23;;
38379;SDS011;38377;47.418;18.882;2022-08-21T04:49:31;12.20;;;10.18;;
38379;SDS011;38377;47.418;18.882;2022-08-21T04:51:58;13.25;;;9.45;;
38379;SDS011;38377;47.418;18.882;2022-08-21T04:54:24;10.73;;;8.50;;
38379;SDS011;38377;47.418;18.882;2022-08-21T04:56:54;10.80;;;8.77;;
38379;SDS011;38377;47.418;18.882;2022-08-21T04:59:29;11.02;;;8.10;;
38379;SDS011;38377;47.418;18.882;2022-08-21T05:01:57;10.10;;;8.10;;
38379;SDS011;38377;47.418;18.882;2022-08-21T05:04:26;9.52;;;8.13;;
38379;SDS011;38377;47.418;18.882;2022-08-21T05:06:56;9.15;;;7.55;;
38379;SDS011;38377;47.418;18.882;2022-08-21T05:09:25;9.88;;;7.55;;
38379;SDS011;38377;47.418;18.882;2022-08-21T05:11:51;8.38;;;7.35;;
38379;SDS011;38377;47.418;18.882;2022-08-21T05:14:18;8.65;;;7.57;;
38379;SDS011;38377;47.418;18.882;2022-08-21T05:16:44;7.60;;;6.72;;
38379;SDS011;38377;47.418;18.882;2022-08-21T05:19:10;7.85;;;6.57;;
38379;SDS011;38377;47.418;18.882;2022-08-21T05:21:38;7.25;;;6.20;;
38379;SDS011;38377;47.418;18.882;2022-08-21T05:26:33;7.97;;;7.18;;
38379;SDS011;38377;47.418;18.882;2022-08-21T05:28:59;7.50;;;6.38;;
38379;SDS011;38377;47.418;18.882;2022-08-21T05:31:25;9.77;;;5.80;;
38379;SDS011;38377;47.418;18.882;2022-08-21T05:33:50;6.55;;;5.68;;
38379;SDS011;38377;47.418;18.882;2022-08-21T05:36:17;8.07;;;5.70;;
38379;SDS011;38377;47.418;18.882;2022-08-21T05:38:43;7.53;;;5.75;;
38379;SDS011;38377;47.418;18.882;2022-08-21T05:41:09;6.45;;;5.72;;
38379;SDS011;38377;47.418;18.882;2022-08-21T05:43:35;5.75;;;5.20;;
38379;SDS011;38377;47.418;18.882;2022-08-21T05:46:04;5.45;;;4.93;;
38379;SDS011;38377;47.418;18.882;2022-08-21T05:48:31;5.88;;;5.28;;
38379;SDS011;38377;47.418;18.882;2022-08-21T05:51:03;5.72;;;5.22;;
38379;SDS011;38377;47.418;18.882;2022-08-21T05:53:34;6.35;;;5.70;;
38379;SDS011;38377;47.418;18.882;2022-08-21T05:56:01;5.30;;;4.80;;
38379;SDS011;38377;47.418;18.882;2022-08-21T05:58:28;6.93;;;5.32;;
38379;SDS011;38377;47.418;18.882;2022-08-21T06:00:55;6.60;;;5.00;;
38379;SDS011;38377;47.418;18.882;2022-08-21T06:03:23;5.60;;;5.00;;
38379;SDS011;38377;47.418;18.882;2022-08-21T06:05:50;5.65;;;4.85;;
38379;SDS011;38377;47.418;18.882;2022-08-21T06:08:17;5.68;;;5.07;;
38379;SDS011;38377;47.418;18.882;2022-08-21T06:10:44;7.20;;;5.47;;
38379;SDS011;38377;47.418;18.882;2022-08-21T06:13:12;5.45;;;4.95;;
38379;SDS011;38377;47.418;18.882;2022-08-21T06:15:38;5.05;;;4.55;;
38379;SDS011;38377;47.418;18.882;2022-08-21T06:18:04;6.85;;;4.70;;
38379;SDS011;38377;47.418;18.882;2022-08-21T06:20:30;5.43;;;4.82;;
38379;SDS011;38377;47.418;18.882;2022-08-21T06:22:57;5.90;;;5.30;;
38379;SDS011;38377;47.418;18.882;2022-08-21T06:25:23;5.68;;;4.85;;
38379;SDS011;38377;47.418;18.882;2022-08-21T06:27:50;6.03;;;5.25;;
38379;SDS011;38377;47.418;18.882;2022-08-21T06:30:16;6.25;;;5.38;;
38379;SDS011;38377;47.418;18.882;2022-08-21T06:32:43;5.60;;;5.10;;
38379;SDS011;38377;47.418;18.882;2022-08-21T06:35:09;8.38;;;5.57;;
38379;SDS011;38377;47.418;18.882;2022-08-21T06:37:35;5.10;;;4.60;;
38379;SDS011;38377;47.418;18.882;2022-08-21T06:40:02;5.55;;;5.05;;
38379;SDS011;38377;47.418;18.882;2022-08-21T06:42:29;5.47;;;4.97;;
38379;SDS011;38377;47.418;18.882;2022-08-21T06:44:56;5.60;;;5.10;;
38379;SDS011;38377;47.418;18.882;2022-08-21T06:47:22;5.78;;;5.28;;
38379;SDS011;38377;47.418;18.882;2022-08-21T06:49:47;5.55;;;5.03;;
38379;SDS011;38377;47.418;18.882;2022-08-21T06:52:13;6.30;;;5.35;;
38379;SDS011;38377;47.418;18.882;2022-08-21T06:54:40;6.53;;;5.75;;
38379;SDS011;38377;47.418;18.882;2022-08-21T06:57:06;6.47;;;5.35;;
38379;SDS011;38377;47.418;18.882;2022-08-21T06:59:32;5.60;;;5.05;;
38379;SDS011;38377;47.418;18.882;2022-08-21T07:01:58;5.90;;;5.30;;
38379;SDS011;38377;47.418;18.882;2022-08-21T07:04:24;5.72;;;5.22;;
38379;SDS011;38377;47.418;18.882;2022-08-21T07:06:50;6.22;;;5.53;;
38379;SDS011;38377;47.418;18.882;2022-08-21T07:09:16;5.78;;;5.18;;
38379;SDS011;38377;47.418;18.882;2022-08-21T07:11:41;5.50;;;5.00;;
38379;SDS011;38377;47.418;18.882;2022-08-21T07:14:09;6.20;;;5.43;;
38379;SDS011;38377;47.418;18.882;2022-08-21T07:16:34;5.78;;;5.28;;
38379;SDS011;38377;47.418;18.882;2022-08-21T07:19:00;6.50;;;5.80;;
38379;SDS011;38377;47.418;18.882;2022-08-21T07:21:26;6.82;;;5.60;;
38379;SDS011;38377;47.418;18.882;2022-08-21T07:23:52;5.50;;;5.00;;
38379;SDS011;38377;47.418;18.882;2022-08-21T07:26:18;6.25;;;5.60;;
38379;SDS011;38377;47.418;18.882;2022-08-21T07:28:46;7.57;;;5.82;;
38379;SDS011;38377;47.418;18.882;2022-08-21T07:31:14;7.30;;;5.88;;
38379;SDS011;38377;47.418;18.882;2022-08-21T07:33:41;8.15;;;6.63;;
38379;SDS011;38377;47.418;18.882;2022-08-21T07:36:07;6.82;;;6.22;;
38379;SDS011;38377;47.418;18.882;2022-08-21T07:38:33;5.93;;;5.32;;
38379;SDS011;38377;47.418;18.882;2022-08-21T07:41:01;6.72;;;6.05;;
38379;SDS011;38377;47.418;18.882;2022-08-21T07:43:28;5.43;;;4.93;;
38379;SDS011;38377;47.418;18.882;2022-08-21T07:45:54;6.50;;;5.57;;
38379;SDS011;38377;47.418;18.882;2022-08-21T07:48:20;6.40;;;5.75;;
38379;SDS011;38377;47.418;18.882;2022-08-21T07:50:47;6.50;;;5.82;;
38379;SDS011;38377;47.418;18.882;2022-08-21T07:53:13;6.28;;;5.68;;
38379;SDS011;38377;47.418;18.882;2022-08-21T07:55:39;8.55;;;6.30;;
38379;SDS011;38377;47.418;18.882;2022-08-21T07:58:05;6.00;;;5.40;;
38379;SDS011;38377;47.418;18.882;2022-08-21T08:00:31;6.57;;;5.55;;
38379;SDS011;38377;47.418;18.882;2022-08-21T08:02:59;6.15;;;5.43;;
38379;SDS011;38377;47.418;18.882;2022-08-21T08:05:27;6.57;;;5.57;;
38379;SDS011;38377;47.418;18.882;2022-08-21T08:07:56;7.45;;;6.55;;
38379;SDS011;38377;47.418;18.882;2022-08-21T08:10:23;6.68;;;5.80;;
38379;SDS011;38377;47.418;18.882;2022-08-21T08:12:49;8.23;;;6.18;;
38379;SDS011;38377;47.418;18.882;2022-08-21T08:15:20;6.00;;;5.32;;
38379;SDS011;38377;47.418;18.882;2022-08-21T08:17:48;9.93;;;6.20;;
38379;SDS011;38377;47.418;18.882;2022-08-21T08:20:14;6.93;;;5.82;;
38379;SDS011;38377;47.418;18.882;2022-08-21T08:22:43;7.43;;;6.68;;
38379;SDS011;38377;47.418;18.882;2022-08-21T08:25:09;7.68;;;6.93;;
38379;SDS011;38377;47.418;18.882;2022-08-21T08:27:37;6.80;;;5.93;;
38379;SDS011;38377;47.418;18.882;2022-08-21T08:30:03;6.28;;;5.68;;
38379;SDS011;38377;47.418;18.882;2022-08-21T08:32:30;7.50;;;6.32;;
38379;SDS011;38377;47.418;18.882;2022-08-21T08:34:56;7.00;;;6.10;;
38379;SDS011;38377;47.418;18.882;2022-08-21T08:37:21;7.53;;;6.15;;
38379;SDS011;38377;47.418;18.882;2022-08-21T08:39:47;6.28;;;5.55;;
38379;SDS011;38377;47.418;18.882;2022-08-21T08:42:15;7.05;;;5.65;;
38379;SDS011;38377;47.418;18.882;2022-08-21T08:44:42;7.68;;;6.55;;
38379;SDS011;38377;47.418;18.882;2022-08-21T08:47:14;6.82;;;6.03;;
38379;SDS011;38377;47.418;18.882;2022-08-21T08:53:05;6.07;;;5.43;;
38379;SDS011;38377;47.418;18.882;2022-08-21T08:55:39;7.53;;;6.78;;
38379;SDS011;38377;47.418;18.882;2022-08-21T08:58:07;6.15;;;5.55;;
38379;SDS011;38377;47.418;18.882;2022-08-21T09:00:38;8.23;;;6.60;;
38379;SDS011;38377;47.418;18.882;2022-08-21T09:03:04;6.07;;;5.45;;
38379;SDS011;38377;47.418;18.882;2022-08-21T09:05:36;6.32;;;5.50;;
38379;SDS011;38377;47.418;18.882;2022-08-21T09:16:43;7.88;;;7.07;;
38379;SDS011;38377;47.418;18.882;2022-08-21T09:24:42;7.50;;;6.13;;
38379;SDS011;38377;47.418;18.882;2022-08-21T09:27:36;9.35;;;6.35;;
38379;SDS011;38377;47.418;18.882;2022-08-21T09:30:03;7.00;;;5.50;;
38379;SDS011;38377;47.418;18.882;2022-08-21T09:32:32;6.07;;;5.53;;
38379;SDS011;38377;47.418;18.882;2022-08-21T09:35:04;6.53;;;5.72;;
38379;SDS011;38377;47.418;18.882;2022-08-21T09:37:47;8.18;;;5.78;;
38379;SDS011;38377;47.418;18.882;2022-08-21T09:45:32;6.30;;;5.70;;
38379;SDS011;38377;47.418;18.882;2022-08-21T09:48:08;6.80;;;6.18;;
38379;SDS011;38377;47.418;18.882;2022-08-21T09:50:39;6.38;;;5.75;;
38379;SDS011;38377;47.418;18.882;2022-08-21T09:53:13;6.57;;;5.85;;
38379;SDS011;38377;47.418;18.882;2022-08-21T09:55:50;6.70;;;5.43;;
38379;SDS011;38377;47.418;18.882;2022-08-21T09:58:42;7.25;;;6.38;;
38379;SDS011;38377;47.418;18.882;2022-08-21T10:01:21;5.80;;;5.30;;
38379;SDS011;38377;47.418;18.882;2022-08-21T10:04:00;6.38;;;5.78;;
38379;SDS011;38377;47.418;18.882;2022-08-21T10:06:32;5.78;;;5.22;;
38379;SDS011;38377;47.418;18.882;2022-08-21T10:09:04;7.20;;;6.50;;
38379;SDS011;38377;47.418;18.882;2022-08-21T10:11:33;8.77;;;6.63;;
38379;SDS011;38377;47.418;18.882;2022-08-21T10:27:37;8.10;;;7.03;;
38379;SDS011;38377;47.418;18.882;2022-08-21T10:44:17;13.95;;;7.18;;
38379;SDS011;38377;47.418;18.882;2022-08-21T10:46:58;6.35;;;5.75;;
38379;SDS011;38377;47.418;18.882;2022-08-21T10:49:35;6.90;;;6.10;;
38379;SDS011;38377;47.418;18.882;2022-08-21T10:57:59;7.30;;;6.60;;
38379;SDS011;38377;47.418;18.882;2022-08-21T11:03:35;7.28;;;6.25;;
38379;SDS011;38377;47.418;18.882;2022-08-21T11:06:13;6.00;;;5.40;;
38379;SDS011;38377;47.418;18.882;2022-08-21T11:08:48;10.50;;;7.88;;
38379;SDS011;38377;47.418;18.882;2022-08-21T11:13:44;7.28;;;6.60;;
38379;SDS011;38377;47.418;18.882;2022-08-21T11:19:10;6.53;;;5.93;;
38379;SDS011;38377;47.418;18.882;2022-08-21T11:21:54;7.15;;;6.05;;
38379;SDS011;38377;47.418;18.882;2022-08-21T11:29:47;8.48;;;5.60;;
38379;SDS011;38377;47.418;18.882;2022-08-21T11:32:36;6.68;;;5.28;;
38379;SDS011;38377;47.418;18.882;2022-08-21T11:54:38;7.75;;;6.38;;
38379;SDS011;38377;47.418;18.882;2022-08-21T11:57:13;6.85;;;6.03;;
38379;SDS011;38377;47.418;18.882;2022-08-21T11:59:45;7.97;;;7.18;;
38379;SDS011;38377;47.418;18.882;2022-08-21T12:02:18;8.13;;;6.20;;
38379;SDS011;38377;47.418;18.882;2022-08-21T12:04:54;13.48;;;7.13;;
38379;SDS011;38377;47.418;18.882;2022-08-21T12:09:58;6.15;;;5.53;;
38379;SDS011;38377;47.418;18.882;2022-08-21T12:18:43;8.35;;;6.00;;
38379;SDS011;38377;47.418;18.882;2022-08-21T12:20:58;8.63;;;6.85;;
38379;SDS011;38377;47.418;18.882;2022-08-21T12:23:29;8.52;;;5.57;;
38379;SDS011;38377;47.418;18.882;2022-08-21T12:26:02;7.22;;;5.97;;
38379;SDS011;38377;47.418;18.882;2022-08-21T12:28:43;6.68;;;5.35;;
38379;SDS011;38377;47.418;18.882;2022-08-21T12:31:27;8.45;;;6.60;;
38379;SDS011;38377;47.418;18.882;2022-08-21T12:33:58;8.45;;;6.15;;
38379;SDS011;38377;47.418;18.882;2022-08-21T12:36:40;9.63;;;6.38;;
38379;SDS011;38377;47.418;18.882;2022-08-21T12:39:14;7.07;;;5.75;;
38379;SDS011;38377;47.418;18.882;2022-08-21T12:41:47;6.43;;;5.70;;
38379;SDS011;38377;47.418;18.882;2022-08-21T12:44:17;7.20;;;4.97;;
38379;SDS011;38377;47.418;18.882;2022-08-21T12:46:59;5.90;;;5.05;;
38379;SDS011;38377;47.418;18.882;2022-08-21T12:49:44;6.20;;;4.85;;
38379;SDS011;38377;47.418;18.882;2022-08-21T12:52:24;7.35;;;4.78;;
38379;SDS011;38377;47.418;18.882;2022-08-21T12:54:55;5.30;;;4.80;;
38379;SDS011;38377;47.418;18.882;2022-08-21T12:57:24;6.82;;;4.82;;
38379;SDS011;38377;47.418;18.882;2022-08-21T13:00:03;6.78;;;4.05;;
38379;SDS011;38377;47.418;18.882;2022-08-21T13:02:37;5.00;;;3.80;;
38379;SDS011;38377;47.418;18.882;2022-08-21T13:05:08;5.32;;;3.47;;
38379;SDS011;38377;47.418;18.882;2022-08-21T13:07:42;6.82;;;4.22;;
38379;SDS011;38377;47.418;18.882;2022-08-21T13:10:16;4.47;;;3.15;;
38379;SDS011;38377;47.418;18.882;2022-08-21T13:12:54;5.30;;;4.20;;
38379;SDS011;38377;47.418;18.882;2022-08-21T13:15:23;5.28;;;3.33;;
38379;SDS011;38377;47.418;18.882;2022-08-21T13:17:51;4.25;;;3.20;;
38379;SDS011;38377;47.418;18.882;2022-08-21T13:22:56;3.60;;;3.30;;
38379;SDS011;38377;47.418;18.882;2022-08-21T13:25:25;3.45;;;3.17;;
38379;SDS011;38377;47.418;18.882;2022-08-21T13:27:59;3.20;;;2.90;;
38379;SDS011;38377;47.418;18.882;2022-08-21T13:30:29;4.70;;;2.63;;
38379;SDS011;38377;47.418;18.882;2022-08-21T13:32:57;4.10;;;3.35;;
38379;SDS011;38377;47.418;18.882;2022-08-21T13:35:36;3.63;;;3.23;;
38379;SDS011;38377;47.418;18.882;2022-08-21T13:38:14;4.32;;;3.15;;
38379;SDS011;38377;47.418;18.882;2022-08-21T13:43:15;4.93;;;2.70;;
38379;SDS011;38377;47.418;18.882;2022-08-21T13:45:47;3.03;;;2.30;;
38379;SDS011;38377;47.418;18.882;2022-08-21T13:48:15;3.80;;;2.83;;
38379;SDS011;38377;47.418;18.882;2022-08-21T13:50:41;4.38;;;2.70;;
38379;SDS011;38377;47.418;18.882;2022-08-21T13:53:19;3.17;;;2.90;;
38379;SDS011;38377;47.418;18.882;2022-08-21T13:55:53;3.92;;;2.83;;
38379;SDS011;38377;47.418;18.882;2022-08-21T13:58:26;3.05;;;2.75;;
38379;SDS011;38377;47.418;18.882;2022-08-21T14:00:54;3.00;;;2.67;;
38379;SDS011;38377;47.418;18.882;2022-08-21T14:06:02;4.82;;;3.05;;
38379;SDS011;38377;47.418;18.882;2022-08-21T14:08:46;3.88;;;3.55;;
38379;SDS011;38377;47.418;18.882;2022-08-21T14:11:19;5.97;;;3.58;;
38379;SDS011;38377;47.418;18.882;2022-08-21T14:13:46;3.70;;;3.33;;
38379;SDS011;38377;47.418;18.882;2022-08-21T14:18:46;3.42;;;3.13;;
38379;SDS011;38377;47.418;18.882;2022-08-21T14:21:13;3.40;;;3.10;;
38379;SDS011;38377;47.418;18.882;2022-08-21T14:24:07;3.97;;;3.45;;
38379;SDS011;38377;47.418;18.882;2022-08-21T14:26:37;4.40;;;4.00;;
38379;SDS011;38377;47.418;18.882;2022-08-21T14:29:14;3.75;;;2.60;;
38379;SDS011;38377;47.418;18.882;2022-08-21T14:31:41;2.90;;;2.70;;
38379;SDS011;38377;47.418;18.882;2022-08-21T14:34:09;2.90;;;2.70;;
38379;SDS011;38377;47.418;18.882;2022-08-21T14:36:36;4.10;;;2.88;;
38379;SDS011;38377;47.418;18.882;2022-08-21T14:39:02;3.30;;;3.00;;
38379;SDS011;38377;47.418;18.882;2022-08-21T14:41:28;3.33;;;3.13;;
38379;SDS011;38377;47.418;18.882;2022-08-21T14:43:54;4.18;;;3.35;;
38379;SDS011;38377;47.418;18.882;2022-08-21T14:46:23;3.65;;;3.45;;
38379;SDS011;38377;47.418;18.882;2022-08-21T14:48:51;4.28;;;3.88;;
38379;SDS011;38377;47.418;18.882;2022-08-21T14:51:17;3.45;;;3.15;;
38379;SDS011;38377;47.418;18.882;2022-08-21T14:53:42;4.25;;;3.40;;
38379;SDS011;38377;47.418;18.882;2022-08-21T14:56:09;4.15;;;3.70;;
38379;SDS011;38377;47.418;18.882;2022-08-21T14:58:39;3.70;;;3.40;;
38379;SDS011;38377;47.418;18.882;2022-08-21T15:01:10;4.57;;;3.70;;
38379;SDS011;38377;47.418;18.882;2022-08-21T15:03:37;4.50;;;4.15;;
38379;SDS011;38377;47.418;18.882;2022-08-21T15:06:04;4.30;;;3.90;;
38379;SDS011;38377;47.418;18.882;2022-08-21T15:08:31;4.07;;;3.78;;
38379;SDS011;38377;47.418;18.882;2022-08-21T15:10:57;4.97;;;3.50;;
38379;SDS011;38377;47.418;18.882;2022-08-21T15:13:25;6.55;;;3.25;;
38379;SDS011;38377;47.418;18.882;2022-08-21T15:15:51;3.85;;;3.20;;
38379;SDS011;38377;47.418;18.882;2022-08-21T15:18:18;3.55;;;3.22;;
38379;SDS011;38377;47.418;18.882;2022-08-21T15:20:44;3.97;;;3.67;;
38379;SDS011;38377;47.418;18.882;2022-08-21T15:23:10;3.88;;;3.58;;
38379;SDS011;38377;47.418;18.882;2022-08-21T15:25:36;4.57;;;3.88;;
38379;SDS011;38377;47.418;18.882;2022-08-21T15:28:07;4.43;;;3.92;;
38379;SDS011;38377;47.418;18.882;2022-08-21T15:30:33;4.30;;;4.00;;
38379;SDS011;38377;47.418;18.882;2022-08-21T15:33:00;4.10;;;3.70;;
38379;SDS011;38377;47.418;18.882;2022-08-21T15:35:25;4.10;;;3.80;;
38379;SDS011;38377;47.418;18.882;2022-08-21T15:37:51;4.47;;;4.15;;
38379;SDS011;38377;47.418;18.882;2022-08-21T15:40:17;5.38;;;4.30;;
38379;SDS011;38377;47.418;18.882;2022-08-21T15:42:43;3.88;;;3.50;;
38379;SDS011;38377;47.418;18.882;2022-08-21T15:45:11;4.05;;;3.75;;
38379;SDS011;38377;47.418;18.882;2022-08-21T15:47:38;4.53;;;4.10;;
38379;SDS011;38377;47.418;18.882;2022-08-21T15:50:08;5.20;;;4.13;;
38379;SDS011;38377;47.418;18.882;2022-08-21T15:52:35;3.75;;;3.45;;
38379;SDS011;38377;47.418;18.882;2022-08-21T15:55:00;4.70;;;4.28;;
38379;SDS011;38377;47.418;18.882;2022-08-21T15:57:26;4.20;;;3.80;;
38379;SDS011;38377;47.418;18.882;2022-08-21T16:00:00;4.40;;;4.00;;
38379;SDS011;38377;47.418;18.882;2022-08-21T16:02:37;3.90;;;3.50;;
38379;SDS011;38377;47.418;18.882;2022-08-21T16:05:06;4.53;;;4.13;;
38379;SDS011;38377;47.418;18.882;2022-08-21T16:07:32;4.05;;;3.65;;
38379;SDS011;38377;47.418;18.882;2022-08-21T16:09:58;4.00;;;3.63;;
38379;SDS011;38377;47.418;18.882;2022-08-21T16:12:25;4.30;;;3.95;;
38379;SDS011;38377;47.418;18.882;2022-08-21T16:14:53;4.78;;;4.00;;
38379;SDS011;38377;47.418;18.882;2022-08-21T16:17:20;5.50;;;3.95;;
38379;SDS011;38377;47.418;18.882;2022-08-21T16:19:50;5.13;;;4.72;;
38379;SDS011;38377;47.418;18.882;2022-08-21T16:22:16;4.45;;;4.05;;
38379;SDS011;38377;47.418;18.882;2022-08-21T16:24:41;4.93;;;4.20;;
38379;SDS011;38377;47.418;18.882;2022-08-21T16:27:07;4.97;;;4.47;;
38379;SDS011;38377;47.418;18.882;2022-08-21T16:29:34;4.28;;;3.88;;
38379;SDS011;38377;47.418;18.882;2022-08-21T16:32:01;4.78;;;4.38;;
38379;SDS011;38377;47.418;18.882;2022-08-21T16:34:27;5.10;;;4.63;;